sensor_id;sensor_type;location;lat;lon;timestamp;P1;durP1;ratioP1;P2;durP2;ratioP2
45792;SDS011;31495;42.740;22.908;2023-11-19T00:00:29;4.18;;;1.92;;
45792;SDS011;31495;42.740;22.908;2023-11-19T00:01:29;4.15;;;1.75;;
45792;SDS011;31495;42.740;22.908;2023-11-19T00:02:29;3.05;;;1.95;;
45792;SDS011;31495;42.740;22.908;2023-11-19T00:03:29;2.97;;;1.50;;
45792;SDS011;31495;42.740;22.908;2023-11-19T00:04:29;3.45;;;1.95;;
45792;SDS011;31495;42.740;22.908;2023-11-19T00:05:29;3.03;;;1.92;;
45792;SDS011;31495;42.740;22.908;2023-11-19T00:06:29;4.15;;;2.20;;
45792;SDS011;31495;42.740;22.908;2023-11-19T00:07:29;4.18;;;2.28;;
45792;SDS011;31495;42.740;22.908;2023-11-19T00:08:29;3.22;;;2.80;;
45792;SDS011;31495;42.740;22.908;2023-11-19T00:09:29;3.97;;;2.00;;
45792;SDS011;31495;42.740;22.908;2023-11-19T00:10:29;6.63;;;2.33;;
45792;SDS011;31495;42.740;22.908;2023-11-19T00:11:29;3.00;;;1.70;;
45792;SDS011;31495;42.740;22.908;2023-11-19T00:12:29;3.20;;;1.83;;
45792;SDS011;31495;42.740;22.908;2023-11-19T00:13:29;4.28;;;2.15;;
45792;SDS011;31495;42.740;22.908;2023-11-19T00:14:30;3.40;;;1.83;;
45792;SDS011;31495;42.740;22.908;2023-11-19T00:15:30;3.78;;;2.13;;
45792;SDS011;31495;42.740;22.908;2023-11-19T00:16:30;3.80;;;2.50;;
45792;SDS011;31495;42.740;22.908;2023-11-19T00:17:31;6.60;;;3.60;;
45792;SDS011;31495;42.740;22.908;2023-11-19T00:18:31;2.42;;;1.83;;
45792;SDS011;31495;42.740;22.908;2023-11-19T00:19:31;3.10;;;2.20;;
45792;SDS011;31495;42.740;22.908;2023-11-19T00:20:31;5.53;;;2.95;;
45792;SDS011;31495;42.740;22.908;2023-11-19T00:21:31;2.83;;;1.95;;
45792;SDS011;31495;42.740;22.908;2023-11-19T00:22:32;6.03;;;3.10;;
45792;SDS011;31495;42.740;22.908;2023-11-19T00:23:32;6.03;;;2.72;;
45792;SDS011;31495;42.740;22.908;2023-11-19T00:24:31;5.68;;;2.65;;
45792;SDS011;31495;42.740;22.908;2023-11-19T00:25:31;3.30;;;2.13;;
45792;SDS011;31495;42.740;22.908;2023-11-19T00:26:31;3.13;;;1.98;;
45792;SDS011;31495;42.740;22.908;2023-11-19T00:27:33;4.10;;;2.22;;
45792;SDS011;31495;42.740;22.908;2023-11-19T00:28:33;3.30;;;1.85;;
45792;SDS011;31495;42.740;22.908;2023-11-19T00:29:33;4.28;;;1.95;;
45792;SDS011;31495;42.740;22.908;2023-11-19T00:30:32;4.03;;;1.75;;
45792;SDS011;31495;42.740;22.908;2023-11-19T00:31:32;4.05;;;2.15;;
45792;SDS011;31495;42.740;22.908;2023-11-19T00:32:32;3.13;;;1.90;;
45792;SDS011;31495;42.740;22.908;2023-11-19T00:33:32;3.42;;;1.95;;
45792;SDS011;31495;42.740;22.908;2023-11-19T00:34:31;2.50;;;1.73;;
45792;SDS011;31495;42.740;22.908;2023-11-19T00:35:31;4.80;;;2.15;;
45792;SDS011;31495;42.740;22.908;2023-11-19T00:36:32;2.88;;;1.33;;
45792;SDS011;31495;42.740;22.908;2023-11-19T00:37:32;2.88;;;1.75;;
45792;SDS011;31495;42.740;22.908;2023-11-19T00:38:32;3.35;;;2.13;;
45792;SDS011;31495;42.740;22.908;2023-11-19T00:39:32;4.82;;;2.22;;
45792;SDS011;31495;42.740;22.908;2023-11-19T00:40:32;3.97;;;1.80;;
45792;SDS011;31495;42.740;22.908;2023-11-19T00:41:32;3.75;;;2.20;;
45792;SDS011;31495;42.740;22.908;2023-11-19T00:42:32;4.15;;;1.48;;
45792;SDS011;31495;42.740;22.908;2023-11-19T00:43:32;4.95;;;2.17;;
45792;SDS011;31495;42.740;22.908;2023-11-19T00:44:32;2.63;;;1.50;;
45792;SDS011;31495;42.740;22.908;2023-11-19T00:45:32;4.72;;;2.15;;
45792;SDS011;31495;42.740;22.908;2023-11-19T00:46:32;4.10;;;2.08;;
45792;SDS011;31495;42.740;22.908;2023-11-19T00:47:32;3.88;;;2.13;;
45792;SDS011;31495;42.740;22.908;2023-11-19T00:48:32;5.05;;;2.08;;
45792;SDS011;31495;42.740;22.908;2023-11-19T00:49:33;3.10;;;1.95;;
45792;SDS011;31495;42.740;22.908;2023-11-19T00:50:33;3.35;;;1.92;;
45792;SDS011;31495;42.740;22.908;2023-11-19T00:51:33;3.40;;;1.90;;
45792;SDS011;31495;42.740;22.908;2023-11-19T00:52:33;3.90;;;1.63;;
45792;SDS011;31495;42.740;22.908;2023-11-19T00:53:33;5.57;;;2.47;;
45792;SDS011;31495;42.740;22.908;2023-11-19T00:54:36;3.55;;;2.20;;
45792;SDS011;31495;42.740;22.908;2023-11-19T00:55:35;3.03;;;1.60;;
45792;SDS011;31495;42.740;22.908;2023-11-19T00:56:34;3.28;;;1.48;;
45792;SDS011;31495;42.740;22.908;2023-11-19T00:57:34;4.28;;;2.40;;
45792;SDS011;31495;42.740;22.908;2023-11-19T00:58:34;7.57;;;2.47;;
45792;SDS011;31495;42.740;22.908;2023-11-19T00:59:34;3.72;;;2.25;;
45792;SDS011;31495;42.740;22.908;2023-11-19T01:00:34;5.03;;;2.50;;
45792;SDS011;31495;42.740;22.908;2023-11-19T01:01:34;4.05;;;2.05;;
45792;SDS011;31495;42.740;22.908;2023-11-19T01:02:34;6.10;;;2.50;;
45792;SDS011;31495;42.740;22.908;2023-11-19T01:03:34;7.60;;;3.65;;
45792;SDS011;31495;42.740;22.908;2023-11-19T01:04:34;10.27;;;2.30;;
45792;SDS011;31495;42.740;22.908;2023-11-19T01:05:34;2.85;;;1.73;;
45792;SDS011;31495;42.740;22.908;2023-11-19T01:06:34;4.60;;;2.60;;
45792;SDS011;31495;42.740;22.908;2023-11-19T01:07:34;4.55;;;2.47;;
45792;SDS011;31495;42.740;22.908;2023-11-19T01:08:34;3.47;;;2.10;;
45792;SDS011;31495;42.740;22.908;2023-11-19T01:09:36;3.28;;;1.85;;
45792;SDS011;31495;42.740;22.908;2023-11-19T01:10:36;3.97;;;2.20;;
45792;SDS011;31495;42.740;22.908;2023-11-19T01:11:36;3.08;;;1.60;;
45792;SDS011;31495;42.740;22.908;2023-11-19T01:12:36;3.10;;;2.15;;
45792;SDS011;31495;42.740;22.908;2023-11-19T01:13:36;3.95;;;2.30;;
45792;SDS011;31495;42.740;22.908;2023-11-19T01:14:36;4.53;;;2.50;;
45792;SDS011;31495;42.740;22.908;2023-11-19T01:15:35;3.33;;;1.90;;
45792;SDS011;31495;42.740;22.908;2023-11-19T01:16:35;6.47;;;2.53;;
45792;SDS011;31495;42.740;22.908;2023-11-19T01:17:38;3.92;;;1.75;;
45792;SDS011;31495;42.740;22.908;2023-11-19T01:18:38;5.82;;;2.55;;
45792;SDS011;31495;42.740;22.908;2023-11-19T01:19:38;7.55;;;2.40;;
45792;SDS011;31495;42.740;22.908;2023-11-19T01:20:37;5.03;;;2.13;;
45792;SDS011;31495;42.740;22.908;2023-11-19T01:21:37;3.58;;;1.77;;
45792;SDS011;31495;42.740;22.908;2023-11-19T01:22:37;4.60;;;2.00;;
45792;SDS011;31495;42.740;22.908;2023-11-19T01:23:36;3.55;;;2.08;;
45792;SDS011;31495;42.740;22.908;2023-11-19T01:24:36;3.53;;;2.00;;
45792;SDS011;31495;42.740;22.908;2023-11-19T01:25:36;7.22;;;1.90;;
45792;SDS011;31495;42.740;22.908;2023-11-19T01:27:37;4.90;;;1.83;;
45792;SDS011;31495;42.740;22.908;2023-11-19T01:28:36;2.38;;;1.92;;
45792;SDS011;31495;42.740;22.908;2023-11-19T01:29:38;2.00;;;1.40;;
45792;SDS011;31495;42.740;22.908;2023-11-19T01:30:38;3.63;;;1.73;;
45792;SDS011;31495;42.740;22.908;2023-11-19T01:31:38;3.22;;;1.73;;
45792;SDS011;31495;42.740;22.908;2023-11-19T01:32:37;3.67;;;2.05;;
45792;SDS011;31495;42.740;22.908;2023-11-19T01:33:37;2.78;;;1.35;;
45792;SDS011;31495;42.740;22.908;2023-11-19T01:34:36;5.38;;;1.95;;
45792;SDS011;31495;42.740;22.908;2023-11-19T01:35:36;3.55;;;1.60;;
45792;SDS011;31495;42.740;22.908;2023-11-19T01:36:36;4.07;;;1.77;;
45792;SDS011;31495;42.740;22.908;2023-11-19T01:37:37;4.65;;;1.98;;
45792;SDS011;31495;42.740;22.908;2023-11-19T01:38:37;6.45;;;2.90;;
45792;SDS011;31495;42.740;22.908;2023-11-19T01:39:37;4.47;;;2.72;;
45792;SDS011;31495;42.740;22.908;2023-11-19T01:40:37;4.28;;;1.95;;
45792;SDS011;31495;42.740;22.908;2023-11-19T01:41:36;3.55;;;1.60;;
45792;SDS011;31495;42.740;22.908;2023-11-19T01:42:38;5.05;;;2.72;;
45792;SDS011;31495;42.740;22.908;2023-11-19T01:43:39;4.65;;;1.50;;
45792;SDS011;31495;42.740;22.908;2023-11-19T01:44:42;4.35;;;2.05;;
45792;SDS011;31495;42.740;22.908;2023-11-19T01:45:53;3.80;;;1.65;;
45792;SDS011;31495;42.740;22.908;2023-11-19T01:46:53;3.22;;;2.05;;
45792;SDS011;31495;42.740;22.908;2023-11-19T01:47:52;4.03;;;1.77;;
45792;SDS011;31495;42.740;22.908;2023-11-19T01:48:51;3.30;;;1.83;;
45792;SDS011;31495;42.740;22.908;2023-11-19T01:49:53;3.17;;;1.95;;
45792;SDS011;31495;42.740;22.908;2023-11-19T01:50:53;4.10;;;2.42;;
45792;SDS011;31495;42.740;22.908;2023-11-19T01:51:53;4.22;;;2.30;;
45792;SDS011;31495;42.740;22.908;2023-11-19T01:52:53;5.13;;;1.90;;
45792;SDS011;31495;42.740;22.908;2023-11-19T01:53:53;3.65;;;1.40;;
45792;SDS011;31495;42.740;22.908;2023-11-19T01:54:55;3.40;;;1.40;;
45792;SDS011;31495;42.740;22.908;2023-11-19T01:55:55;2.72;;;1.52;;
45792;SDS011;31495;42.740;22.908;2023-11-19T01:56:55;2.53;;;1.50;;
45792;SDS011;31495;42.740;22.908;2023-11-19T01:57:57;2.50;;;1.52;;
45792;SDS011;31495;42.740;22.908;2023-11-19T01:58:59;3.33;;;2.53;;
45792;SDS011;31495;42.740;22.908;2023-11-19T02:00:00;3.47;;;1.95;;
45792;SDS011;31495;42.740;22.908;2023-11-19T02:01:00;3.58;;;1.50;;
45792;SDS011;31495;42.740;22.908;2023-11-19T02:02:00;2.38;;;1.70;;
45792;SDS011;31495;42.740;22.908;2023-11-19T02:03:00;4.00;;;1.42;;
45792;SDS011;31495;42.740;22.908;2023-11-19T02:03:59;2.72;;;1.85;;
45792;SDS011;31495;42.740;22.908;2023-11-19T02:05:00;3.53;;;1.63;;
45792;SDS011;31495;42.740;22.908;2023-11-19T02:06:00;3.33;;;1.80;;
45792;SDS011;31495;42.740;22.908;2023-11-19T02:07:00;3.35;;;1.90;;
45792;SDS011;31495;42.740;22.908;2023-11-19T02:08:00;2.63;;;1.70;;
45792;SDS011;31495;42.740;22.908;2023-11-19T02:09:00;4.15;;;2.25;;
45792;SDS011;31495;42.740;22.908;2023-11-19T02:10:00;4.82;;;2.42;;
45792;SDS011;31495;42.740;22.908;2023-11-19T02:11:02;4.97;;;1.73;;
45792;SDS011;31495;42.740;22.908;2023-11-19T02:12:02;3.20;;;2.00;;
45792;SDS011;31495;42.740;22.908;2023-11-19T02:13:02;3.42;;;1.75;;
45792;SDS011;31495;42.740;22.908;2023-11-19T02:14:04;3.25;;;1.83;;
45792;SDS011;31495;42.740;22.908;2023-11-19T02:15:04;4.20;;;2.03;;
45792;SDS011;31495;42.740;22.908;2023-11-19T02:16:04;3.50;;;1.70;;
45792;SDS011;31495;42.740;22.908;2023-11-19T02:17:04;3.30;;;1.80;;
45792;SDS011;31495;42.740;22.908;2023-11-19T02:19:36;2.45;;;1.60;;
45792;SDS011;31495;42.740;22.908;2023-11-19T02:20:36;3.83;;;2.08;;
45792;SDS011;31495;42.740;22.908;2023-11-19T02:21:36;4.90;;;2.42;;
45792;SDS011;31495;42.740;22.908;2023-11-19T02:22:37;2.97;;;1.80;;
45792;SDS011;31495;42.740;22.908;2023-11-19T02:23:36;4.05;;;1.77;;
45792;SDS011;31495;42.740;22.908;2023-11-19T02:24:36;6.05;;;2.08;;
45792;SDS011;31495;42.740;22.908;2023-11-19T02:25:36;3.97;;;2.65;;
45792;SDS011;31495;42.740;22.908;2023-11-19T02:26:39;5.10;;;2.75;;
45792;SDS011;31495;42.740;22.908;2023-11-19T02:28:54;7.20;;;3.20;;
45792;SDS011;31495;42.740;22.908;2023-11-19T02:29:54;5.32;;;3.30;;
45792;SDS011;31495;42.740;22.908;2023-11-19T02:30:54;5.43;;;2.70;;
45792;SDS011;31495;42.740;22.908;2023-11-19T02:31:53;4.20;;;2.80;;
45792;SDS011;31495;42.740;22.908;2023-11-19T02:32:57;6.15;;;3.08;;
45792;SDS011;31495;42.740;22.908;2023-11-19T02:33:59;3.40;;;2.13;;
45792;SDS011;31495;42.740;22.908;2023-11-19T02:35:01;4.43;;;2.90;;
45792;SDS011;31495;42.740;22.908;2023-11-19T02:36:01;3.67;;;2.33;;
45792;SDS011;31495;42.740;22.908;2023-11-19T02:37:03;5.25;;;2.25;;
45792;SDS011;31495;42.740;22.908;2023-11-19T02:38:04;2.67;;;1.75;;
45792;SDS011;31495;42.740;22.908;2023-11-19T02:39:03;2.65;;;1.85;;
45792;SDS011;31495;42.740;22.908;2023-11-19T02:40:03;4.20;;;2.20;;
45792;SDS011;31495;42.740;22.908;2023-11-19T02:41:06;5.47;;;2.42;;
45792;SDS011;31495;42.740;22.908;2023-11-19T02:42:06;3.08;;;1.75;;
45792;SDS011;31495;42.740;22.908;2023-11-19T02:43:05;3.00;;;1.88;;
45792;SDS011;31495;42.740;22.908;2023-11-19T02:44:08;3.95;;;1.77;;
45792;SDS011;31495;42.740;22.908;2023-11-19T02:45:07;3.92;;;2.30;;
45792;SDS011;31495;42.740;22.908;2023-11-19T02:46:12;4.15;;;2.22;;
45792;SDS011;31495;42.740;22.908;2023-11-19T02:47:12;3.22;;;2.13;;
45792;SDS011;31495;42.740;22.908;2023-11-19T02:48:12;4.10;;;2.33;;
45792;SDS011;31495;42.740;22.908;2023-11-19T02:49:14;2.97;;;1.95;;
45792;SDS011;31495;42.740;22.908;2023-11-19T02:50:14;3.85;;;2.13;;
45792;SDS011;31495;42.740;22.908;2023-11-19T02:51:14;4.30;;;2.55;;
45792;SDS011;31495;42.740;22.908;2023-11-19T02:52:13;4.35;;;2.67;;
45792;SDS011;31495;42.740;22.908;2023-11-19T02:53:13;3.83;;;2.00;;
45792;SDS011;31495;42.740;22.908;2023-11-19T02:54:13;5.55;;;2.88;;
45792;SDS011;31495;42.740;22.908;2023-11-19T02:55:13;3.42;;;2.08;;
45792;SDS011;31495;42.740;22.908;2023-11-19T02:56:13;3.25;;;2.00;;
45792;SDS011;31495;42.740;22.908;2023-11-19T02:57:24;9.48;;;4.03;;
45792;SDS011;31495;42.740;22.908;2023-11-19T02:58:23;7.30;;;3.65;;
45792;SDS011;31495;42.740;22.908;2023-11-19T02:59:23;3.65;;;2.13;;
45792;SDS011;31495;42.740;22.908;2023-11-19T03:00:27;4.03;;;2.00;;
45792;SDS011;31495;42.740;22.908;2023-11-19T03:01:34;3.97;;;2.00;;
45792;SDS011;31495;42.740;22.908;2023-11-19T03:02:35;3.38;;;2.05;;
45792;SDS011;31495;42.740;22.908;2023-11-19T03:03:44;4.78;;;2.25;;
45792;SDS011;31495;42.740;22.908;2023-11-19T03:04:53;3.03;;;1.73;;
45792;SDS011;31495;42.740;22.908;2023-11-19T03:05:52;4.80;;;2.88;;
45792;SDS011;31495;42.740;22.908;2023-11-19T03:06:52;3.13;;;2.15;;
45792;SDS011;31495;42.740;22.908;2023-11-19T03:07:52;3.35;;;2.15;;
45792;SDS011;31495;42.740;22.908;2023-11-19T03:08:51;4.63;;;3.10;;
45792;SDS011;31495;42.740;22.908;2023-11-19T03:09:51;3.80;;;2.50;;
45792;SDS011;31495;42.740;22.908;2023-11-19T03:10:51;5.78;;;3.33;;
45792;SDS011;31495;42.740;22.908;2023-11-19T03:11:50;4.25;;;2.50;;
45792;SDS011;31495;42.740;22.908;2023-11-19T03:12:50;4.60;;;2.67;;
45792;SDS011;31495;42.740;22.908;2023-11-19T03:13:49;3.83;;;2.25;;
45792;SDS011;31495;42.740;22.908;2023-11-19T03:14:49;5.38;;;3.03;;
45792;SDS011;31495;42.740;22.908;2023-11-19T03:15:50;3.80;;;2.30;;
45792;SDS011;31495;42.740;22.908;2023-11-19T03:16:51;4.47;;;2.63;;
45792;SDS011;31495;42.740;22.908;2023-11-19T03:17:51;5.95;;;3.80;;
45792;SDS011;31495;42.740;22.908;2023-11-19T03:18:51;4.63;;;3.03;;
45792;SDS011;31495;42.740;22.908;2023-11-19T03:19:50;3.72;;;2.60;;
45792;SDS011;31495;42.740;22.908;2023-11-19T03:20:49;8.93;;;3.17;;
45792;SDS011;31495;42.740;22.908;2023-11-19T03:21:49;7.30;;;3.17;;
45792;SDS011;31495;42.740;22.908;2023-11-19T03:22:49;5.18;;;2.30;;
45792;SDS011;31495;42.740;22.908;2023-11-19T03:23:50;4.28;;;2.47;;
45792;SDS011;31495;42.740;22.908;2023-11-19T03:24:52;4.82;;;2.97;;
45792;SDS011;31495;42.740;22.908;2023-11-19T03:25:52;3.60;;;2.30;;
45792;SDS011;31495;42.740;22.908;2023-11-19T03:26:51;4.15;;;2.17;;
45792;SDS011;31495;42.740;22.908;2023-11-19T03:27:50;3.08;;;1.95;;
45792;SDS011;31495;42.740;22.908;2023-11-19T03:28:50;5.30;;;2.45;;
45792;SDS011;31495;42.740;22.908;2023-11-19T03:29:49;3.75;;;2.60;;
45792;SDS011;31495;42.740;22.908;2023-11-19T03:30:49;4.30;;;2.88;;
45792;SDS011;31495;42.740;22.908;2023-11-19T03:31:48;4.22;;;2.88;;
45792;SDS011;31495;42.740;22.908;2023-11-19T03:32:49;7.43;;;3.80;;
45792;SDS011;31495;42.740;22.908;2023-11-19T03:33:48;5.18;;;3.22;;
45792;SDS011;31495;42.740;22.908;2023-11-19T03:34:47;3.92;;;3.03;;
45792;SDS011;31495;42.740;22.908;2023-11-19T03:35:47;3.25;;;2.45;;
45792;SDS011;31495;42.740;22.908;2023-11-19T03:36:47;4.82;;;2.50;;
45792;SDS011;31495;42.740;22.908;2023-11-19T03:37:47;4.03;;;2.28;;
45792;SDS011;31495;42.740;22.908;2023-11-19T03:38:47;4.80;;;2.95;;
45792;SDS011;31495;42.740;22.908;2023-11-19T03:39:47;5.45;;;2.85;;
45792;SDS011;31495;42.740;22.908;2023-11-19T03:40:46;5.30;;;2.67;;
45792;SDS011;31495;42.740;22.908;2023-11-19T03:41:47;4.80;;;2.22;;
45792;SDS011;31495;42.740;22.908;2023-11-19T03:42:47;5.55;;;2.55;;
45792;SDS011;31495;42.740;22.908;2023-11-19T03:43:47;5.13;;;3.10;;
45792;SDS011;31495;42.740;22.908;2023-11-19T03:44:47;4.30;;;2.58;;
45792;SDS011;31495;42.740;22.908;2023-11-19T03:45:48;3.47;;;2.42;;
45792;SDS011;31495;42.740;22.908;2023-11-19T03:46:48;4.43;;;2.95;;
45792;SDS011;31495;42.740;22.908;2023-11-19T03:47:48;3.85;;;2.50;;
45792;SDS011;31495;42.740;22.908;2023-11-19T03:48:49;6.35;;;3.17;;
45792;SDS011;31495;42.740;22.908;2023-11-19T03:49:49;3.80;;;2.65;;
45792;SDS011;31495;42.740;22.908;2023-11-19T03:50:49;3.88;;;2.30;;
45792;SDS011;31495;42.740;22.908;2023-11-19T03:51:48;6.10;;;3.08;;
45792;SDS011;31495;42.740;22.908;2023-11-19T03:52:49;4.25;;;2.90;;
45792;SDS011;31495;42.740;22.908;2023-11-19T03:53:48;5.57;;;2.80;;
45792;SDS011;31495;42.740;22.908;2023-11-19T03:54:48;5.97;;;3.40;;
45792;SDS011;31495;42.740;22.908;2023-11-19T03:55:48;4.95;;;3.25;;
45792;SDS011;31495;42.740;22.908;2023-11-19T03:56:49;5.20;;;3.53;;
45792;SDS011;31495;42.740;22.908;2023-11-19T03:57:48;5.35;;;2.85;;
45792;SDS011;31495;42.740;22.908;2023-11-19T03:58:48;9.02;;;4.63;;
45792;SDS011;31495;42.740;22.908;2023-11-19T03:59:49;5.47;;;3.60;;
45792;SDS011;31495;42.740;22.908;2023-11-19T04:00:49;4.15;;;2.97;;
45792;SDS011;31495;42.740;22.908;2023-11-19T04:01:49;4.38;;;2.92;;
45792;SDS011;31495;42.740;22.908;2023-11-19T04:02:49;5.88;;;3.40;;
45792;SDS011;31495;42.740;22.908;2023-11-19T04:03:49;4.20;;;3.20;;
45792;SDS011;31495;42.740;22.908;2023-11-19T04:04:49;3.92;;;2.88;;
45792;SDS011;31495;42.740;22.908;2023-11-19T04:05:49;6.35;;;3.80;;
45792;SDS011;31495;42.740;22.908;2023-11-19T04:06:49;4.57;;;2.92;;
45792;SDS011;31495;42.740;22.908;2023-11-19T04:07:49;4.35;;;3.17;;
45792;SDS011;31495;42.740;22.908;2023-11-19T04:08:49;7.43;;;3.15;;
45792;SDS011;31495;42.740;22.908;2023-11-19T04:09:49;6.00;;;3.85;;
45792;SDS011;31495;42.740;22.908;2023-11-19T04:10:50;5.20;;;3.30;;
45792;SDS011;31495;42.740;22.908;2023-11-19T04:11:52;5.05;;;3.33;;
45792;SDS011;31495;42.740;22.908;2023-11-19T04:12:51;6.10;;;3.60;;
45792;SDS011;31495;42.740;22.908;2023-11-19T04:13:51;6.05;;;3.45;;
45792;SDS011;31495;42.740;22.908;2023-11-19T04:14:50;4.47;;;2.85;;
45792;SDS011;31495;42.740;22.908;2023-11-19T04:15:50;5.50;;;3.45;;
45792;SDS011;31495;42.740;22.908;2023-11-19T04:16:50;6.72;;;3.70;;
45792;SDS011;31495;42.740;22.908;2023-11-19T04:17:50;6.35;;;4.05;;
45792;SDS011;31495;42.740;22.908;2023-11-19T04:18:50;5.45;;;2.95;;
45792;SDS011;31495;42.740;22.908;2023-11-19T04:19:49;5.20;;;2.83;;
45792;SDS011;31495;42.740;22.908;2023-11-19T04:20:50;7.10;;;3.28;;
45792;SDS011;31495;42.740;22.908;2023-11-19T04:21:50;6.60;;;4.03;;
45792;SDS011;31495;42.740;22.908;2023-11-19T04:22:51;5.40;;;2.33;;
45792;SDS011;31495;42.740;22.908;2023-11-19T04:23:51;6.18;;;2.85;;
45792;SDS011;31495;42.740;22.908;2023-11-19T04:24:51;5.55;;;3.10;;
45792;SDS011;31495;42.740;22.908;2023-11-19T04:25:51;6.25;;;3.38;;
45792;SDS011;31495;42.740;22.908;2023-11-19T04:26:51;4.20;;;2.70;;
45792;SDS011;31495;42.740;22.908;2023-11-19T04:27:51;4.85;;;3.10;;
45792;SDS011;31495;42.740;22.908;2023-11-19T04:28:51;6.88;;;3.80;;
45792;SDS011;31495;42.740;22.908;2023-11-19T04:29:51;5.68;;;3.15;;
45792;SDS011;31495;42.740;22.908;2023-11-19T04:30:51;5.18;;;3.00;;
45792;SDS011;31495;42.740;22.908;2023-11-19T04:31:51;3.53;;;2.35;;
45792;SDS011;31495;42.740;22.908;2023-11-19T04:32:51;5.38;;;3.20;;
45792;SDS011;31495;42.740;22.908;2023-11-19T04:33:51;5.18;;;3.03;;
45792;SDS011;31495;42.740;22.908;2023-11-19T04:34:52;4.13;;;2.95;;
45792;SDS011;31495;42.740;22.908;2023-11-19T04:35:51;3.78;;;2.63;;
45792;SDS011;31495;42.740;22.908;2023-11-19T04:36:51;3.75;;;2.13;;
45792;SDS011;31495;42.740;22.908;2023-11-19T04:37:50;4.38;;;2.58;;
45792;SDS011;31495;42.740;22.908;2023-11-19T04:38:49;5.25;;;2.55;;
45792;SDS011;31495;42.740;22.908;2023-11-19T04:39:50;4.30;;;2.70;;
45792;SDS011;31495;42.740;22.908;2023-11-19T04:40:50;5.95;;;2.97;;
45792;SDS011;31495;42.740;22.908;2023-11-19T04:41:50;3.10;;;2.10;;
45792;SDS011;31495;42.740;22.908;2023-11-19T04:42:53;5.32;;;3.78;;
45792;SDS011;31495;42.740;22.908;2023-11-19T04:43:55;6.78;;;3.15;;
45792;SDS011;31495;42.740;22.908;2023-11-19T04:44:55;5.70;;;3.63;;
45792;SDS011;31495;42.740;22.908;2023-11-19T04:45:55;5.57;;;2.97;;
45792;SDS011;31495;42.740;22.908;2023-11-19T04:46:54;4.80;;;3.13;;
45792;SDS011;31495;42.740;22.908;2023-11-19T04:47:54;6.63;;;3.58;;
45792;SDS011;31495;42.740;22.908;2023-11-19T04:48:53;6.43;;;3.78;;
45792;SDS011;31495;42.740;22.908;2023-11-19T04:49:53;6.50;;;3.67;;
45792;SDS011;31495;42.740;22.908;2023-11-19T04:50:53;5.15;;;2.95;;
45792;SDS011;31495;42.740;22.908;2023-11-19T04:51:53;7.25;;;4.20;;
45792;SDS011;31495;42.740;22.908;2023-11-19T04:52:53;7.53;;;3.38;;
45792;SDS011;31495;42.740;22.908;2023-11-19T04:53:53;7.20;;;4.07;;
45792;SDS011;31495;42.740;22.908;2023-11-19T04:54:53;5.10;;;3.33;;
45792;SDS011;31495;42.740;22.908;2023-11-19T04:55:53;4.93;;;3.17;;
45792;SDS011;31495;42.740;22.908;2023-11-19T04:56:53;4.85;;;2.78;;
45792;SDS011;31495;42.740;22.908;2023-11-19T04:57:54;7.00;;;3.60;;
45792;SDS011;31495;42.740;22.908;2023-11-19T04:58:54;6.25;;;3.33;;
45792;SDS011;31495;42.740;22.908;2023-11-19T04:59:53;6.40;;;3.90;;
45792;SDS011;31495;42.740;22.908;2023-11-19T05:00:54;5.90;;;3.92;;
45792;SDS011;31495;42.740;22.908;2023-11-19T05:01:54;5.60;;;2.65;;
45792;SDS011;31495;42.740;22.908;2023-11-19T05:02:53;4.50;;;3.00;;
45792;SDS011;31495;42.740;22.908;2023-11-19T05:03:55;6.40;;;3.55;;
45792;SDS011;31495;42.740;22.908;2023-11-19T05:04:58;4.63;;;3.15;;
45792;SDS011;31495;42.740;22.908;2023-11-19T05:05:58;5.90;;;3.03;;
45792;SDS011;31495;42.740;22.908;2023-11-19T05:06:58;5.65;;;2.70;;
45792;SDS011;31495;42.740;22.908;2023-11-19T05:07:58;6.03;;;3.20;;
45792;SDS011;31495;42.740;22.908;2023-11-19T05:08:58;5.22;;;3.53;;
45792;SDS011;31495;42.740;22.908;2023-11-19T05:10:06;4.68;;;2.67;;
45792;SDS011;31495;42.740;22.908;2023-11-19T05:11:06;6.25;;;3.17;;
45792;SDS011;31495;42.740;22.908;2023-11-19T05:12:06;6.72;;;3.65;;
45792;SDS011;31495;42.740;22.908;2023-11-19T05:13:09;3.92;;;2.88;;
45792;SDS011;31495;42.740;22.908;2023-11-19T05:14:09;5.53;;;3.05;;
45792;SDS011;31495;42.740;22.908;2023-11-19T05:15:08;5.40;;;3.10;;
45792;SDS011;31495;42.740;22.908;2023-11-19T05:16:08;5.15;;;3.25;;
45792;SDS011;31495;42.740;22.908;2023-11-19T05:17:09;8.00;;;3.25;;
45792;SDS011;31495;42.740;22.908;2023-11-19T05:18:08;5.90;;;3.35;;
45792;SDS011;31495;42.740;22.908;2023-11-19T05:19:08;5.72;;;4.30;;
45792;SDS011;31495;42.740;22.908;2023-11-19T05:20:08;7.70;;;3.95;;
45792;SDS011;31495;42.740;22.908;2023-11-19T05:21:12;9.13;;;4.57;;
45792;SDS011;31495;42.740;22.908;2023-11-19T05:22:12;7.60;;;4.50;;
45792;SDS011;31495;42.740;22.908;2023-11-19T05:23:12;9.23;;;5.07;;
45792;SDS011;31495;42.740;22.908;2023-11-19T05:24:11;6.95;;;4.35;;
45792;SDS011;31495;42.740;22.908;2023-11-19T05:25:10;7.13;;;3.95;;
45792;SDS011;31495;42.740;22.908;2023-11-19T05:26:17;6.72;;;3.35;;
45792;SDS011;31495;42.740;22.908;2023-11-19T05:27:17;6.07;;;3.67;;
45792;SDS011;31495;42.740;22.908;2023-11-19T05:28:17;6.15;;;3.60;;
45792;SDS011;31495;42.740;22.908;2023-11-19T05:29:16;5.78;;;3.10;;
45792;SDS011;31495;42.740;22.908;2023-11-19T05:30:16;4.38;;;2.92;;
45792;SDS011;31495;42.740;22.908;2023-11-19T05:31:15;6.50;;;3.45;;
45792;SDS011;31495;42.740;22.908;2023-11-19T05:32:16;6.72;;;3.85;;
45792;SDS011;31495;42.740;22.908;2023-11-19T05:33:15;7.60;;;4.22;;
45792;SDS011;31495;42.740;22.908;2023-11-19T05:34:15;7.05;;;4.65;;
45792;SDS011;31495;42.740;22.908;2023-11-19T05:35:14;8.80;;;3.55;;
45792;SDS011;31495;42.740;22.908;2023-11-19T05:36:14;6.95;;;3.67;;
45792;SDS011;31495;42.740;22.908;2023-11-19T05:37:14;6.78;;;4.55;;
45792;SDS011;31495;42.740;22.908;2023-11-19T05:38:13;6.43;;;3.85;;
45792;SDS011;31495;42.740;22.908;2023-11-19T05:39:13;5.97;;;3.65;;
45792;SDS011;31495;42.740;22.908;2023-11-19T05:40:14;7.10;;;3.47;;
45792;SDS011;31495;42.740;22.908;2023-11-19T05:41:13;6.30;;;4.10;;
45792;SDS011;31495;42.740;22.908;2023-11-19T05:42:12;9.48;;;3.38;;
45792;SDS011;31495;42.740;22.908;2023-11-19T05:43:12;8.75;;;5.10;;
45792;SDS011;31495;42.740;22.908;2023-11-19T05:44:11;6.40;;;4.20;;
45792;SDS011;31495;42.740;22.908;2023-11-19T05:45:12;8.90;;;4.70;;
45792;SDS011;31495;42.740;22.908;2023-11-19T05:46:11;7.25;;;4.78;;
45792;SDS011;31495;42.740;22.908;2023-11-19T05:47:12;7.63;;;4.63;;
45792;SDS011;31495;42.740;22.908;2023-11-19T05:48:11;6.22;;;3.78;;
45792;SDS011;31495;42.740;22.908;2023-11-19T05:49:11;7.22;;;4.28;;
45792;SDS011;31495;42.740;22.908;2023-11-19T05:50:11;8.48;;;5.10;;
45792;SDS011;31495;42.740;22.908;2023-11-19T05:51:10;6.28;;;3.95;;
45792;SDS011;31495;42.740;22.908;2023-11-19T05:52:10;8.13;;;4.55;;
45792;SDS011;31495;42.740;22.908;2023-11-19T05:53:11;8.00;;;5.13;;
45792;SDS011;31495;42.740;22.908;2023-11-19T05:54:12;6.93;;;4.82;;
45792;SDS011;31495;42.740;22.908;2023-11-19T05:55:12;6.30;;;3.85;;
45792;SDS011;31495;42.740;22.908;2023-11-19T05:56:13;7.18;;;4.75;;
45792;SDS011;31495;42.740;22.908;2023-11-19T05:57:15;7.00;;;2.92;;
45792;SDS011;31495;42.740;22.908;2023-11-19T05:58:19;5.60;;;3.80;;
45792;SDS011;31495;42.740;22.908;2023-11-19T05:59:19;5.93;;;3.60;;
45792;SDS011;31495;42.740;22.908;2023-11-19T06:00:18;8.27;;;4.22;;
45792;SDS011;31495;42.740;22.908;2023-11-19T06:01:18;6.57;;;4.60;;